Carnival Glory — 3FPS9 — position and weather

sailwx.info

Track history (hours):
 
Tides and Currents Weather Stations Pressure Air Temp Water Temp Dewpoint Dewpoint Depression Visibility Wind Speed Wind Dir Waves Ship Positions

Carnival Glory

Operator: Carnival Cruise Lines

Last reported at 2018-Oct-23 03:00 UTC. Time now 2018-Oct-24 05:50 UTC.
Position N 17°54' W 083°36'.

Type: Passenger vessel. MMSI: 357659000.

Wind from 070 at 18 knots

Barometer 1014.3 mb
Air temperature 27.0 ° C
Visibility: greater than 10.8 NM
Dewpoint 24.1 ° C
Water temperature 29.0 ° C

Date/timePositionNaut miles runAvg speedWind from/ knotsBaromVisibWave heightAir tempDewpointWater temp
2018-Oct-23 03:00N 17°54' W 083°36'10120.2 070 / 181014.310.8 27.024.129.0
2018-Oct-22 22:00N 18°48' W 082°06'85 5.3 090 / 101012.910.8 27.022.625.0
2018-Oct-22 06:00N 20°06' W 082°42'14117.7 050 / 151013.510.8 26.024.624.0
2018-Oct-21 22:00N 21°24' W 084°48'13314.8 050 / 201012.910.8 27.022.623.0
2018-Oct-21 13:00N 23°12' W 083°24'13218.8 060 / 81015.810.8 26.023.129.0
2018-Oct-21 06:00N 23°48' W 081°06'5017.9 060 / 41014.810.8 26.023.125.0
2018-Oct-21 03:10N 24°19' W 080°23'425.4
2018-Oct-21 03:00N 24°18' W 080°18'920.6 140 / 71014.910.8 26.023.129.0
2018-Oct-21 02:33N 24°25' W 080°13'1318.6
2018-Oct-21 01:51N 24°33' W 080°00'818.9
2018-Oct-21 01:24N 24°37' W 079°53'1317.9
2018-Oct-21 00:42N 24°47' W 079°44'1918.3
2018-Oct-20 23:41N 25°05' W 079°39'710.4
2018-Oct-20 23:00N 25°12' W 079°36'1047.8 1014.927.0 27.022.625.0
2018-Oct-20 22:47N 25°21' W 079°39'517.4
2018-Oct-20 22:30N 25°26' W 079°40'816.8
2018-Oct-20 22:04N 25°34' W 079°40'116.7
2018-Oct-20 22:00N 25°35' W 079°40'817.2
2018-Oct-20 21:31N 25°39' W 079°48'817.4
2018-Oct-20 21:04N 25°43' W 079°56'118.1
2018-Oct-20 21:00N 25°43' W 079°57'815.4
2018-Oct-20 20:30N 25°46' W 080°05'4 9.5
2018-Oct-20 20:03N 25°46' W 080°10'0 3.7
2018-Oct-20 20:00N 25°47' W 080°10'0 0.1
2018-Oct-20 19:30N 25°46' W 080°10'0 0.0
2018-Oct-20 19:01N 25°46' W 080°10'0 0.0
2018-Oct-20 18:58N 25°46' W 080°10'0 0.0
2018-Oct-20 18:28N 25°46' W 080°10'0 0.0
2018-Oct-20 18:01N 25°46' W 080°10'0 0.0
2018-Oct-20 17:58N 25°46' W 080°10'0 0.0
2018-Oct-20 17:28N 25°46' W 080°10'0 0.0
2018-Oct-20 17:01N 25°46' W 080°10'0 0.0
2018-Oct-20 16:58N 25°46' W 080°10'0 0.0
2018-Oct-20 16:28N 25°46' W 080°10'0 0.0
2018-Oct-20 16:01N 25°46' W 080°10'0 0.0
2018-Oct-20 15:55N 25°46' W 080°10'0 0.0
2018-Oct-20 15:28N 25°46' W 080°10'0 0.0
2018-Oct-20 15:01N 25°46' W 080°10'0 0.0
2018-Oct-20 14:58N 25°46' W 080°10'0 0.0
2018-Oct-20 14:28N 25°46' W 080°10'0 0.0
2018-Oct-20 13:28N 25°46' W 080°10'0 0.0
2018-Oct-20 13:01N 25°46' W 080°10'0 0.0
2018-Oct-20 12:58N 25°46' W 080°10'0 0.0
2018-Oct-20 12:22N 25°46' W 080°10'0 0.0
2018-Oct-20 12:01N 25°46' W 080°10'0 0.0
2018-Oct-20 11:52N 25°46' W 080°10'0 0.0
2018-Oct-20 11:28N 25°46' W 080°10'0 0.0
2018-Oct-20 10:55N 25°46' W 080°10'0 0.0
2018-Oct-20 10:22N 25°46' W 080°10'0 0.0
2018-Oct-20 10:01N 25°46' W 080°10'0 0.0
2018-Oct-20 09:55N 25°46' W 080°10'1 2.7
2018-Oct-20 09:30N 25°47' W 080°11'2 4.5
2018-Oct-20 09:03N 25°46' W 080°09'0 7.0
2018-Oct-20 09:00N 25°46' W 080°08'611.7
2018-Oct-20 08:30N 25°47' W 080°02'511.9
2018-Oct-20 08:03N 25°44' W 079°57'115.5
2018-Oct-20 08:00N 25°44' W 079°56'917.3
2018-Oct-20 07:30N 25°40' W 079°48'918.6
2018-Oct-20 07:03N 25°33' W 079°41'120.0
2018-Oct-20 07:00N 25°32' W 079°41'1020.0
2018-Oct-20 06:30N 25°23' W 079°38'3019.6
2018-Oct-20 05:00N 24°54' W 079°30'11919.8 080 / 181016.610.8 27.024.125.0
2018-Oct-19 23:00N 23°00' W 078°54'25821.5 090 / 201015.910.8 27.024.124.0
2018-Oct-19 11:00N 21°00' W 074°48'9719.3 050 / 151015.910.8 27.022.624.0
2018-Oct-19 06:00N 20°24' W 073°12'191 9.5 070 / 281014.610.8 26.023.125.0
2018-Oct-18 10:00N 19°42' W 069°54'10520.9 100 / 161013.9 5.4 27.022.629.0
2018-Oct-18 05:00N 19°18' W 068°06'12320.5 100 / 301014.610.8 28.025.229.0
2018-Oct-17 23:00N 18°48' W 066°00'6819.2 090 / 101015.910.8 27.024.124.0
2018-Oct-17 19:28N 18°17' W 064°56'1 0.2
2018-Oct-17 10:12N 18°18' W 064°55'1 8.7
2018-Oct-17 10:03N 18°17' W 064°56'1 9.7
2018-Oct-17 09:59N 18°16' W 064°56'5 9.4
2018-Oct-17 09:30N 18°13' W 064°60'4510.0
2018-Oct-17 05:00N 18°42' W 065°36'113 5.9 060 / 281012.9 28.025.225.0
2018-Oct-16 10:00N 19°30' W 067°24'7819.6 070 / 201014.910.8 28.023.730.0
2018-Oct-16 06:00N 20°18' W 068°30'7819.6 080 / 211015.910.8 26.024.625.0
2018-Oct-16 02:00N 21°06' W 069°36'109 6.1 080 / 251016.5 5.4 26.023.129.0
2018-Oct-15 08:00N 21°48' W 071°24'4113.6 070 / 191013.9 5.4 27.022.629.8
2018-Oct-15 05:00N 22°18' W 071°54'6115.3 090 / 281015.210.8 27.024.125.0
2018-Oct-15 01:00N 23°00' W 072°42'2412.2 080 / 301015.710.8 27.024.129.0
2018-Oct-14 23:00N 23°18' W 073°00'22716.2 080 / 301013.910.8 26.021.524.0
2018-Oct-14 09:00N 25°36' W 076°18'14418.0 040 / 101008.910.8 27.024.124.0
2018-Oct-14 00:59N 26°12' W 078°53'816.2
2018-Oct-14 00:30N 26°14' W 079°02'716.3
2018-Oct-14 00:03N 26°15' W 079°09'116.6
2018-Oct-14 00:00N 26°15' W 079°10'816.5
2018-Oct-13 23:30N 26°14' W 079°20'816.9
2018-Oct-13 23:03N 26°11' W 079°27'117.6
2018-Oct-13 23:00N 26°10' W 079°28'917.9
2018-Oct-13 22:30N 26°05' W 079°36'817.8
2018-Oct-13 22:03N 26°00' W 079°43'117.8
2018-Oct-13 22:00N 25°60' W 079°44'917.8
2018-Oct-13 21:30N 25°55' W 079°52'817.0
2018-Oct-13 21:03N 25°50' W 079°59'116.3
2018-Oct-13 21:00N 25°50' W 079°60'713.2
2018-Oct-13 20:30N 25°46' W 080°06'4 8.6
2018-Oct-13 20:03N 25°46' W 080°10'0 0.8
2018-Oct-13 20:00N 25°46' W 080°10'0 0.0
2018-Oct-13 19:30N 25°46' W 080°10'0 0.0
2018-Oct-13 19:03N 25°46' W 080°10'0 0.0
2018-Oct-13 19:00N 25°46' W 080°10'0 0.0
2018-Oct-13 18:30N 25°46' W 080°10'0 0.0
2018-Oct-13 18:03N 25°46' W 080°10'0 0.0
2018-Oct-13 17:54N 25°46' W 080°10'0 0.0
2018-Oct-13 17:30N 25°46' W 080°10'0 0.0
2018-Oct-13 17:03N 25°46' W 080°10'0 0.0
2018-Oct-13 17:00N 25°46' W 080°10'0 0.0
2018-Oct-13 16:30N 25°46' W 080°10'0 0.0
2018-Oct-13 16:03N 25°46' W 080°10'0 0.0
2018-Oct-13 15:57N 25°46' W 080°10'0 0.0
2018-Oct-13 15:30N 25°46' W 080°10'0 0.0
2018-Oct-13 14:54N 25°46' W 080°10'0 0.0
2018-Oct-13 14:24N 25°46' W 080°10'0 0.0
2018-Oct-13 13:57N 25°46' W 080°10'0 0.0
2018-Oct-13 13:27N 25°46' W 080°10'0 0.0
2018-Oct-13 13:03N 25°46' W 080°10'0 0.0
2018-Oct-13 12:57N 25°46' W 080°10'0 0.0
2018-Oct-13 12:27N 25°46' W 080°10'0 0.0
2018-Oct-13 11:57N 25°46' W 080°10'0 0.0
2018-Oct-13 11:30N 25°46' W 080°10'0 0.0
2018-Oct-13 11:00N 25°46' W 080°10'0 0.0
2018-Oct-13 10:30N 25°46' W 080°10'0 0.0
2018-Oct-13 10:00N 25°46' W 080°10'1 2.4
2018-Oct-13 09:30N 25°47' W 080°11'3 5.7
2018-Oct-13 09:03N 25°46' W 080°08'0 8.6
2018-Oct-13 09:00N 25°46' W 080°08'611.2
2018-Oct-13 08:30N 25°47' W 080°02'4 8.7
2018-Oct-13 08:03N 25°45' W 079°58'111.6
2018-Oct-13 08:00N 25°45' W 079°57'612.2
2018-Oct-13 07:30N 25°42' W 079°51'511.9
2018-Oct-13 07:03N 25°39' W 079°46'111.6
2018-Oct-13 07:00N 25°39' W 079°46'712.0
2018-Oct-13 06:23N 25°33' W 079°42'412.9
2018-Oct-13 06:03N 25°28' W 079°41'113.0
2018-Oct-13 06:00N 25°28' W 079°41'713.3
2018-Oct-13 05:30N 25°21' W 079°41'613.6
2018-Oct-13 05:03N 25°15' W 079°40'113.9
2018-Oct-13 05:00N 25°14' W 079°40'  
Track history (hours):
 
Tides and Currents Weather Stations Pressure Air Temp Water Temp Dewpoint Dewpoint Depression Visibility Wind Speed Wind Dir Waves Ship Positions

Carnival Glory

Operator: Carnival Cruise Lines

Last reported at 2018-Oct-23 03:00 UTC. Time now 2018-Oct-24 05:50 UTC.
Position N 17°54' W 083°36'.

Type: Passenger vessel. MMSI: 357659000.

Wind from 070 at 18 knots

Barometer 1014.3 mb
Air temperature 27.0 ° C
Visibility: greater than 10.8 NM
Dewpoint 24.1 ° C
Water temperature 29.0 ° C

Date/timePositionNaut miles runAvg speedWind from/ knotsBaromVisibWave heightAir tempDewpointWater temp
2018-Oct-23 03:00N 17°54' W 083°36'10120.2 070 / 181014.310.8 27.024.129.0
2018-Oct-22 22:00N 18°48' W 082°06'85 5.3 090 / 101012.910.8 27.022.625.0
2018-Oct-22 06:00N 20°06' W 082°42'14117.7 050 / 151013.510.8 26.024.624.0
2018-Oct-21 22:00N 21°24' W 084°48'13314.8 050 / 201012.910.8 27.022.623.0
2018-Oct-21 13:00N 23°12' W 083°24'13218.8 060 / 81015.810.8 26.023.129.0
2018-Oct-21 06:00N 23°48' W 081°06'5017.9 060 / 41014.810.8 26.023.125.0
2018-Oct-21 03:10N 24°19' W 080°23'425.4
2018-Oct-21 03:00N 24°18' W 080°18'920.6 140 / 71014.910.8 26.023.129.0
2018-Oct-21 02:33N 24°25' W 080°13'1318.6
2018-Oct-21 01:51N 24°33' W 080°00'818.9
2018-Oct-21 01:24N 24°37' W 079°53'1317.9
2018-Oct-21 00:42N 24°47' W 079°44'1918.3
2018-Oct-20 23:41N 25°05' W 079°39'710.4
2018-Oct-20 23:00N 25°12' W 079°36'1047.8 1014.927.0 27.022.625.0
2018-Oct-20 22:47N 25°21' W 079°39'517.4
2018-Oct-20 22:30N 25°26' W 079°40'816.8
2018-Oct-20 22:04N 25°34' W 079°40'116.7
2018-Oct-20 22:00N 25°35' W 079°40'817.2
2018-Oct-20 21:31N 25°39' W 079°48'817.4
2018-Oct-20 21:04N 25°43' W 079°56'118.1
2018-Oct-20 21:00N 25°43' W 079°57'815.4
2018-Oct-20 20:30N 25°46' W 080°05'4 9.5
2018-Oct-20 20:03N 25°46' W 080°10'0 3.7
2018-Oct-20 20:00N 25°47' W 080°10'0 0.1
2018-Oct-20 19:30N 25°46' W 080°10'0 0.0
2018-Oct-20 19:01N 25°46' W 080°10'0 0.0
2018-Oct-20 18:58N 25°46' W 080°10'0 0.0
2018-Oct-20 18:28N 25°46' W 080°10'0 0.0
2018-Oct-20 18:01N 25°46' W 080°10'0 0.0
2018-Oct-20 17:58N 25°46' W 080°10'0 0.0
2018-Oct-20 17:28N 25°46' W 080°10'0 0.0
2018-Oct-20 17:01N 25°46' W 080°10'0 0.0
2018-Oct-20 16:58N 25°46' W 080°10'0 0.0
2018-Oct-20 16:28N 25°46' W 080°10'0 0.0
2018-Oct-20 16:01N 25°46' W 080°10'0 0.0
2018-Oct-20 15:55N 25°46' W 080°10'0 0.0
2018-Oct-20 15:28N 25°46' W 080°10'0 0.0
2018-Oct-20 15:01N 25°46' W 080°10'0 0.0
2018-Oct-20 14:58N 25°46' W 080°10'0 0.0
2018-Oct-20 14:28N 25°46' W 080°10'0 0.0
2018-Oct-20 13:28N 25°46' W 080°10'0 0.0
2018-Oct-20 13:01N 25°46' W 080°10'0 0.0
2018-Oct-20 12:58N 25°46' W 080°10'0 0.0
2018-Oct-20 12:22N 25°46' W 080°10'0 0.0
2018-Oct-20 12:01N 25°46' W 080°10'0 0.0
2018-Oct-20 11:52N 25°46' W 080°10'0 0.0
2018-Oct-20 11:28N 25°46' W 080°10'0 0.0
2018-Oct-20 10:55N 25°46' W 080°10'0 0.0
2018-Oct-20 10:22N 25°46' W 080°10'0 0.0
2018-Oct-20 10:01N 25°46' W 080°10'0 0.0
2018-Oct-20 09:55N 25°46' W 080°10'1 2.7
2018-Oct-20 09:30N 25°47' W 080°11'2 4.5
2018-Oct-20 09:03N 25°46' W 080°09'0 7.0
2018-Oct-20 09:00N 25°46' W 080°08'611.7
2018-Oct-20 08:30N 25°47' W 080°02'511.9
2018-Oct-20 08:03N 25°44' W 079°57'115.5
2018-Oct-20 08:00N 25°44' W 079°56'917.3
2018-Oct-20 07:30N 25°40' W 079°48'918.6
2018-Oct-20 07:03N 25°33' W 079°41'120.0
2018-Oct-20 07:00N 25°32' W 079°41'1020.0
2018-Oct-20 06:30N 25°23' W 079°38'3019.6
2018-Oct-20 05:00N 24°54' W 079°30'11919.8 080 / 181016.610.8 27.024.125.0
2018-Oct-19 23:00N 23°00' W 078°54'25821.5 090 / 201015.910.8 27.024.124.0
2018-Oct-19 11:00N 21°00' W 074°48'9719.3 050 / 151015.910.8 27.022.624.0
2018-Oct-19 06:00N 20°24' W 073°12'191 9.5 070 / 281014.610.8 26.023.125.0
2018-Oct-18 10:00N 19°42' W 069°54'10520.9 100 / 161013.9 5.4 27.022.629.0
2018-Oct-18 05:00N 19°18' W 068°06'12320.5 100 / 301014.610.8 28.025.229.0
2018-Oct-17 23:00N 18°48' W 066°00'6819.2 090 / 101015.910.8 27.024.124.0
2018-Oct-17 19:28N 18°17' W 064°56'1 0.2
2018-Oct-17 10:12N 18°18' W 064°55'1 8.7
2018-Oct-17 10:03N 18°17' W 064°56'1 9.7
2018-Oct-17 09:59N 18°16' W 064°56'5 9.4
2018-Oct-17 09:30N 18°13' W 064°60'4510.0
2018-Oct-17 05:00N 18°42' W 065°36'113 5.9 060 / 281012.9 28.025.225.0
2018-Oct-16 10:00N 19°30' W 067°24'7819.6 070 / 201014.910.8 28.023.730.0
2018-Oct-16 06:00N 20°18' W 068°30'7819.6 080 / 211015.910.8 26.024.625.0
2018-Oct-16 02:00N 21°06' W 069°36'109 6.1 080 / 251016.5 5.4 26.023.129.0
2018-Oct-15 08:00N 21°48' W 071°24'4113.6 070 / 191013.9 5.4 27.022.629.8
2018-Oct-15 05:00N 22°18' W 071°54'6115.3 090 / 281015.210.8 27.024.125.0
2018-Oct-15 01:00N 23°00' W 072°42'2412.2 080 / 301015.710.8 27.024.129.0
2018-Oct-14 23:00N 23°18' W 073°00'22716.2 080 / 301013.910.8 26.021.524.0
2018-Oct-14 09:00N 25°36' W 076°18'14418.0 040 / 101008.910.8 27.024.124.0
2018-Oct-14 00:59N 26°12' W 078°53'816.2
2018-Oct-14 00:30N 26°14' W 079°02'716.3
2018-Oct-14 00:03N 26°15' W 079°09'116.6
2018-Oct-14 00:00N 26°15' W 079°10'816.5
2018-Oct-13 23:30N 26°14' W 079°20'816.9
2018-Oct-13 23:03N 26°11' W 079°27'117.6
2018-Oct-13 23:00N 26°10' W 079°28'917.9
2018-Oct-13 22:30N 26°05' W 079°36'817.8
2018-Oct-13 22:03N 26°00' W 079°43'117.8
2018-Oct-13 22:00N 25°60' W 079°44'917.8
2018-Oct-13 21:30N 25°55' W 079°52'817.0
2018-Oct-13 21:03N 25°50' W 079°59'116.3
2018-Oct-13 21:00N 25°50' W 079°60'713.2
2018-Oct-13 20:30N 25°46' W 080°06'4 8.6
2018-Oct-13 20:03N 25°46' W 080°10'0 0.8
2018-Oct-13 20:00N 25°46' W 080°10'0 0.0
2018-Oct-13 19:30N 25°46' W 080°10'0 0.0
2018-Oct-13 19:03N 25°46' W 080°10'0 0.0
2018-Oct-13 19:00N 25°46' W 080°10'0 0.0
2018-Oct-13 18:30N 25°46' W 080°10'0 0.0
2018-Oct-13 18:03N 25°46' W 080°10'0 0.0
2018-Oct-13 17:54N 25°46' W 080°10'0 0.0
2018-Oct-13 17:30N 25°46' W 080°10'0 0.0
2018-Oct-13 17:03N 25°46' W 080°10'0 0.0
2018-Oct-13 17:00N 25°46' W 080°10'0 0.0
2018-Oct-13 16:30N 25°46' W 080°10'0 0.0
2018-Oct-13 16:03N 25°46' W 080°10'0 0.0
2018-Oct-13 15:57N 25°46' W 080°10'0 0.0
2018-Oct-13 15:30N 25°46' W 080°10'0 0.0
2018-Oct-13 14:54N 25°46' W 080°10'0 0.0
2018-Oct-13 14:24N 25°46' W 080°10'0 0.0
2018-Oct-13 13:57N 25°46' W 080°10'0 0.0
2018-Oct-13 13:27N 25°46' W 080°10'0 0.0
2018-Oct-13 13:03N 25°46' W 080°10'0 0.0
2018-Oct-13 12:57N 25°46' W 080°10'0 0.0
2018-Oct-13 12:27N 25°46' W 080°10'0 0.0
2018-Oct-13 11:57N 25°46' W 080°10'0 0.0
2018-Oct-13 11:30N 25°46' W 080°10'0 0.0
2018-Oct-13 11:00N 25°46' W 080°10'0 0.0
2018-Oct-13 10:30N 25°46' W 080°10'0 0.0
2018-Oct-13 10:00N 25°46' W 080°10'1 2.4
2018-Oct-13 09:30N 25°47' W 080°11'3 5.7
2018-Oct-13 09:03N 25°46' W 080°08'0 8.6
2018-Oct-13 09:00N 25°46' W 080°08'611.2
2018-Oct-13 08:30N 25°47' W 080°02'4 8.7
2018-Oct-13 08:03N 25°45' W 079°58'111.6
2018-Oct-13 08:00N 25°45' W 079°57'612.2
2018-Oct-13 07:30N 25°42' W 079°51'511.9
2018-Oct-13 07:03N 25°39' W 079°46'111.6
2018-Oct-13 07:00N 25°39' W 079°46'712.0
2018-Oct-13 06:23N 25°33' W 079°42'412.9
2018-Oct-13 06:03N 25°28' W 079°41'113.0
2018-Oct-13 06:00N 25°28' W 079°41'713.3
2018-Oct-13 05:30N 25°21' W 079°41'613.6
2018-Oct-13 05:03N 25°15' W 079°40'113.9
2018-Oct-13 05:00N 25°14' W 079°40'  

Dump ship's entire track history